Time;durP1;ratioP1;P1;durP2;ratioP2;P2;SDS_P1;SDS_P2;PMS_P1;PMS_P2;Temp;Humidity;BMP_temperature;BMP_pressure;BME280_temperature;BME280_humidity;BME280_pressure;Samples;Min_cycle;Max_cycle;Signal;HPM_P1;HPM_P2
2023/02/09 00:01:21;;;;;;;3.47;3.28;;;0.10;84.50;;;;;;6091219;23;20813;-75
2023/02/09 00:03:48;;;;;;;2.90;2.80;;;0.10;83.90;;;;;;6066033;23;20401;-76
2023/02/09 00:06:19;;;;;;;2.72;2.63;;;0.20;84.20;;;;;;6067333;23;20390;-75
2023/02/09 00:08:46;;;;;;;2.65;2.55;;;0.20;83.50;;;;;;6066361;23;20771;-76
2023/02/09 00:11:19;;;;;;;2.70;2.60;;;0.20;83.80;;;;;;6067486;23;20406;-76
2023/02/09 00:13:46;;;;;;;2.90;2.80;;;0.20;84.60;;;;;;6091936;23;20850;-75
2023/02/09 00:16:13;;;;;;;2.63;2.53;;;0.10;87.40;;;;;;6092338;23;20377;-76
2023/02/09 00:18:40;;;;;;;2.50;2.40;;;0.10;88.30;;;;;;6066719;23;20385;-76
2023/02/09 00:21:10;;;;;;;2.58;2.47;;;0.00;84.30;;;;;;6093273;23;20383;-76
2023/02/09 00:23:39;;;;;;;2.80;2.70;;;0.00;81.90;;;;;;6068189;23;20385;-76
2023/02/09 00:26:10;;;;;;;2.03;1.92;;;0.10;79.90;;;;;;6093121;23;20377;-76
2023/02/09 00:28:37;;;;;;;2.60;2.50;;;0.20;76.10;;;;;;6093199;23;20405;-76
2023/02/09 00:31:09;;;;;;;2.20;2.10;;;0.20;76.60;;;;;;6069036;23;20373;-76
2023/02/09 00:33:37;;;;;;;2.95;2.75;;;0.20;76.50;;;;;;6091761;23;20436;-76
2023/02/09 00:36:09;;;;;;;2.42;2.33;;;0.10;77.00;;;;;;6069357;23;20374;-76
2023/02/09 00:38:36;;;;;;;2.47;2.38;;;0.00;77.70;;;;;;6067786;23;20412;-76
2023/02/09 00:41:04;;;;;;;2.58;2.47;;;0.10;77.00;;;;;;6069120;23;20385;-76
2023/02/09 00:43:31;;;;;;;2.72;2.63;;;0.10;77.70;;;;;;6068296;23;20731;-76
2023/02/09 00:45:58;;;;;;;2.58;2.47;;;0.00;78.90;;;;;;6067852;23;20433;-76
2023/02/09 00:48:25;;;;;;;2.63;2.53;;;0.10;80.50;;;;;;6094113;23;20377;-76
2023/02/09 00:50:52;;;;;;;2.60;2.50;;;0.10;78.10;;;;;;6067847;23;20452;-75
2023/02/09 00:53:20;;;;;;;2.58;2.38;;;0.10;77.00;;;;;;6093841;23;20381;-76
2023/02/09 00:55:47;;;;;;;2.10;2.00;;;0.20;71.80;;;;;;6093193;23;20452;-76
2023/02/09 00:58:15;;;;;;;2.10;2.00;;;0.40;66.80;;;;;;6069197;23;20429;-76
2023/02/09 01:00:42;;;;;;;2.60;2.50;;;0.70;63.40;;;;;;6067437;23;20384;-75
2023/02/09 01:03:09;;;;;;;2.40;2.30;;;0.80;63.60;;;;;;6094263;23;20432;-74
2023/02/09 01:05:41;;;;;;;2.88;2.78;;;0.80;62.90;;;;;;6068514;23;20373;-76
2023/02/09 01:08:08;;;;;;;2.08;1.98;;;0.90;62.20;;;;;;6068213;23;20736;-76
2023/02/09 01:10:36;;;;;;;1.90;1.80;;;0.90;61.90;;;;;;6093674;23;20408;-76
2023/02/09 01:13:04;;;;;;;1.95;1.85;;;0.90;60.90;;;;;;6092998;23;20491;-75
2023/02/09 01:15:31;;;;;;;1.75;1.65;;;1.00;60.70;;;;;;6094054;23;20852;-75
2023/02/09 01:17:58;;;;;;;1.70;1.60;;;1.00;60.40;;;;;;6092741;23;20583;-76
2023/02/09 01:20:26;;;;;;;1.50;1.50;;;1.00;60.50;;;;;;6094216;23;20388;-76
2023/02/09 01:22:53;;;;;;;1.60;1.52;;;1.00;61.00;;;;;;6092771;23;20420;-76
2023/02/09 01:25:20;;;;;;;2.10;2.00;;;1.00;62.70;;;;;;6094002;23;20449;-75
2023/02/09 01:27:47;;;;;;;2.00;1.90;;;1.00;63.70;;;;;;6093387;23;20451;-75
2023/02/09 01:30:14;;;;;;;1.83;1.73;;;1.00;67.10;;;;;;6067642;23;20440;-76
2023/02/09 01:32:41;;;;;;;2.15;2.05;;;0.90;67.90;;;;;;6068016;23;20424;-75
2023/02/09 01:35:09;;;;;;;2.05;1.95;;;0.80;70.00;;;;;;6092571;23;20405;-76
2023/02/09 01:37:36;;;;;;;2.22;2.13;;;0.80;69.90;;;;;;6068638;23;20382;-75
2023/02/09 01:40:04;;;;;;;2.17;2.08;;;0.80;68.60;;;;;;6067616;23;20373;-76
2023/02/09 01:42:32;;;;;;;2.25;2.15;;;0.70;67.80;;;;;;6093734;23;20377;-76
2023/02/09 01:45:16;;;;;;;2.17;2.08;;;0.70;69.00;;;;;;6067895;23;20374;-75
2023/02/09 01:47:48;;;;;;;1.97;1.87;;;0.60;71.30;;;;;;6068283;23;20498;-75
2023/02/09 01:50:16;;;;;;;1.90;1.80;;;0.60;70.00;;;;;;6091443;23;20463;-75
2023/02/09 01:52:45;;;;;;;2.00;1.90;;;0.60;69.90;;;;;;6093423;23;20405;-75
2023/02/09 01:55:15;;;;;;;1.70;1.70;;;0.60;70.40;;;;;;6092722;23;20373;-75
2023/02/09 01:57:49;;;;;;;1.50;1.40;;;0.60;71.20;;;;;;6068246;23;20952;-76
2023/02/09 02:00:18;;;;;;;1.30;1.30;;;0.60;70.40;;;;;;6067777;23;20445;-76
2023/02/09 15:12:25;;;;;;;1.00;1.00;;;5.60;41.80;;;;;;6122167;23;20423;-79
2023/02/09 15:14:57;;;;;;;1.00;1.00;;;5.80;41.30;;;;;;6125442;23;20378;-78
2023/02/09 15:17:26;;;;;;;1.00;1.00;;;6.10;41.70;;;;;;6126287;23;20751;-78
2023/02/09 15:19:56;;;;;;;1.00;1.00;;;6.10;40.70;;;;;;6125908;23;20401;-78
2023/02/09 15:22:23;;;;;;;0.90;0.90;;;6.00;40.10;;;;;;6126110;23;20710;-78
2023/02/09 15:24:51;;;;;;;1.08;0.90;;;5.90;40.80;;;;;;6125485;23;20373;-79
2023/02/09 15:27:23;;;;;;;1.10;1.10;;;5.90;39.90;;;;;;6127001;23;20467;-78
2023/02/09 15:29:51;;;;;;;1.25;1.25;;;5.90;40.10;;;;;;6125065;23;20887;-78
2023/02/09 15:32:19;;;;;;;1.25;1.15;;;5.60;40.10;;;;;;6125786;23;20422;-78
2023/02/09 15:34:47;;;;;;;0.80;0.80;;;5.60;40.70;;;;;;6124436;23;20754;-78
2023/02/09 15:37:32;;;;;;;1.10;1.10;;;5.60;40.30;;;;;;6126128;23;20369;-77
2023/02/09 15:40:09;;;;;;;1.20;1.20;;;5.50;40.20;;;;;;6150401;23;20362;-77
2023/02/09 15:48:10;;;;;;;1.00;1.00;;;5.90;41.60;;;;;;6150608;23;20382;-80
2023/02/09 15:50:43;;;;;;;1.00;1.00;;;5.80;41.40;;;;;;6126386;23;20461;-78
2023/02/09 15:53:17;;;;;;;0.90;0.90;;;5.70;41.60;;;;;;6153102;23;20374;-78
2023/02/09 15:55:45;;;;;;;1.00;1.00;;;5.50;41.10;;;;;;6127941;23;20406;-79
2023/02/09 15:58:16;;;;;;;0.93;0.93;;;5.40;41.80;;;;;;6127198;23;20373;-79
2023/02/09 16:00:43;;;;;;;1.00;0.90;;;5.70;41.30;;;;;;6128219;23;20703;-80
2023/02/09 16:03:18;;;;;;;1.20;1.10;;;5.60;41.60;;;;;;6123219;23;20465;-80
2023/02/09 16:05:48;;;;;;;1.13;1.13;;;5.40;40.80;;;;;;6098714;23;20712;-79
2023/02/09 16:08:22;;;;;;;1.00;1.00;;;5.10;42.10;;;;;;6098265;23;20906;-79
2023/02/09 16:10:50;;;;;;;0.90;0.90;;;4.90;41.10;;;;;;6097249;23;20404;-80
2023/02/09 16:13:18;;;;;;;1.10;1.10;;;4.70;41.60;;;;;;6097386;23;20764;-79
2023/02/09 16:15:46;;;;;;;1.38;1.38;;;4.80;42.00;;;;;;6098622;23;20387;-79
2023/02/09 16:18:13;;;;;;;1.30;1.20;;;4.80;43.40;;;;;;6123563;23;20708;-79
2023/02/09 16:20:45;;;;;;;1.10;1.10;;;4.70;42.10;;;;;;6098110;23;20372;-80
2023/02/09 16:23:18;;;;;;;2.07;1.97;;;4.70;42.70;;;;;;6097674;23;20444;-79
2023/02/09 16:25:52;;;;;;;1.50;1.40;;;4.40;41.40;;;;;;6098734;23;20741;-79
2023/02/09 16:28:20;;;;;;;1.20;1.20;;;4.30;42.20;;;;;;6097654;23;20408;-80
2023/02/09 16:30:53;;;;;;;1.23;1.23;;;4.20;42.40;;;;;;6098343;23;20503;-79
2023/02/09 16:33:22;;;;;;;1.10;1.10;;;4.20;42.70;;;;;;6097782;23;20517;-79
2023/02/09 16:35:58;;;;;;;1.10;1.10;;;4.20;43.30;;;;;;6099042;23;20391;-80
2023/02/09 16:38:26;;;;;;;1.08;1.02;;;4.20;43.60;;;;;;6098146;23;20450;-79
2023/02/09 16:40:54;;;;;;;1.05;1.05;;;4.20;43.70;;;;;;6098051;23;20749;-80
2023/02/09 16:43:21;;;;;;;1.10;1.10;;;4.20;43.90;;;;;;6098116;23;20380;-79
2023/02/09 16:45:50;;;;;;;1.05;1.05;;;4.10;44.00;;;;;;6098369;23;20384;-78
2023/02/09 16:48:31;;;;;;;1.10;1.10;;;4.10;44.30;;;;;;6122826;23;20491;-79
2023/02/09 16:50:58;;;;;;;1.13;1.02;;;4.20;44.30;;;;;;6098578;23;20451;-80
2023/02/09 16:53:33;;;;;;;1.03;1.00;;;4.10;44.70;;;;;;6097204;23;20511;-80
2023/02/09 16:56:03;;;;;;;1.20;1.10;;;4.00;45.20;;;;;;6124165;23;20454;-79
2023/02/09 16:58:30;;;;;;;1.20;1.10;;;3.80;46.20;;;;;;6098088;23;20371;-79
2023/02/09 17:00:57;;;;;;;1.00;1.00;;;3.80;47.10;;;;;;6098430;23;20386;-79
2023/02/09 17:03:34;;;;;;;1.33;1.23;;;3.60;47.50;;;;;;6096400;23;20383;-79
2023/02/09 17:06:02;;;;;;;1.45;1.35;;;3.50;47.70;;;;;;6098347;23;20771;-76
2023/02/09 17:08:31;;;;;;;1.10;1.10;;;3.40;47.90;;;;;;6096837;23;20406;-79
2023/02/09 17:11:00;;;;;;;1.45;1.35;;;3.30;48.40;;;;;;6097320;23;20407;-79
2023/02/09 17:13:29;;;;;;;1.40;1.30;;;3.20;49.30;;;;;;6097658;23;20375;-79
2023/02/09 17:16:05;;;;;;;1.63;1.52;;;3.10;49.50;;;;;;6098357;23;20384;-79
2023/02/09 17:18:41;;;;;;;1.60;1.50;;;3.00;50.70;;;;;;6097232;23;20485;-79
2023/02/09 17:21:20;;;;;;;1.80;1.70;;;3.00;49.80;;;;;;6122810;23;20383;-79
2023/02/09 17:23:48;;;;;;;1.85;1.75;;;3.00;49.60;;;;;;6097941;23;20408;-79
2023/02/09 17:26:15;;;;;;;1.80;1.70;;;2.90;49.70;;;;;;6097261;23;20454;-80
2023/02/09 17:28:42;;;;;;;1.95;1.85;;;2.70;50.10;;;;;;6097671;23;20408;-79
2023/02/09 17:31:17;;;;;;;2.00;1.90;;;2.70;50.50;;;;;;6096671;23;20443;-80
2023/02/09 17:33:46;;;;;;;2.03;1.92;;;2.60;50.20;;;;;;6097435;23;20380;-79
2023/02/09 17:36:13;;;;;;;2.03;1.92;;;2.60;50.70;;;;;;6097047;23;20748;-79
2023/02/09 17:38:58;;;;;;;2.08;1.98;;;2.50;51.70;;;;;;6101023;23;20380;-79
2023/02/09 17:41:32;;;;;;;1.92;1.83;;;2.40;51.60;;;;;;6096831;23;20407;-79
2023/02/09 17:44:14;;;;;;;1.52;1.52;;;2.30;51.90;;;;;;6098263;23;20379;-79
2023/02/09 17:47:02;;;;;;;1.70;1.60;;;2.20;53.10;;;;;;6100501;23;20384;-79
2023/02/09 17:49:29;;;;;;;2.38;2.17;;;2.20;52.30;;;;;;6097705;23;20391;-79
2023/02/09 17:51:56;;;;;;;1.80;1.70;;;2.10;52.50;;;;;;6096866;23;20384;-79
2023/02/09 17:54:22;;;;;;;1.30;1.30;;;1.90;53.80;;;;;;6123100;23;20391;-79
2023/02/09 17:56:49;;;;;;;1.80;1.70;;;1.80;53.70;;;;;;6097025;23;20440;-79
2023/02/09 17:59:18;;;;;;;1.60;1.50;;;1.60;54.60;;;;;;6096954;23;20375;-79
2023/02/09 18:01:50;;;;;;;1.75;1.65;;;1.70;54.50;;;;;;6096736;23;20388;-79
2023/02/09 18:04:21;;;;;;;2.00;1.90;;;1.60;54.30;;;;;;6097228;23;20372;-79
2023/02/09 18:06:48;;;;;;;2.40;2.20;;;1.50;54.80;;;;;;6096494;23;20426;-78
2023/02/09 18:09:15;;;;;;;2.00;1.90;;;1.30;56.10;;;;;;6097664;23;20415;-79
2023/02/09 18:11:50;;;;;;;1.90;1.80;;;1.10;57.60;;;;;;6096550;23;20443;-79
2023/02/09 18:14:19;;;;;;;2.28;2.17;;;1.00;57.40;;;;;;6097579;23;20736;-79
2023/02/09 18:16:46;;;;;;;1.90;1.80;;;1.00;57.40;;;;;;6121926;23;20435;-79
2023/02/09 18:19:14;;;;;;;2.00;1.90;;;1.00;57.10;;;;;;6097468;23;20439;-78
2023/02/09 18:21:49;;;;;;;1.85;1.75;;;1.00;57.00;;;;;;6095953;23;20463;-79
2023/02/09 18:24:17;;;;;;;1.95;1.85;;;1.00;56.80;;;;;;6097021;23;20654;-79
2023/02/09 18:26:46;;;;;;;2.00;1.90;;;1.00;56.70;;;;;;6096146;23;20756;-79
2023/02/09 18:29:13;;;;;;;1.80;1.70;;;1.00;56.90;;;;;;6097023;23;20693;-80
2023/02/09 18:31:40;;;;;;;1.83;1.73;;;0.90;57.00;;;;;;6097540;23;20450;-80
2023/02/09 18:34:08;;;;;;;2.67;2.58;;;0.80;57.10;;;;;;6096414;23;20372;-80
2023/02/09 18:36:35;;;;;;;2.50;2.40;;;0.60;59.00;;;;;;6097219;23;20896;-79
2023/02/09 18:39:02;;;;;;;2.45;2.35;;;0.50;58.90;;;;;;6096066;23;20380;-79
2023/02/09 18:41:30;;;;;;;2.17;2.08;;;0.50;58.90;;;;;;6096720;23;20371;-79
2023/02/09 18:43:57;;;;;;;2.43;2.33;;;0.50;58.70;;;;;;6095856;23;20393;-79
2023/02/09 18:46:25;;;;;;;2.80;2.70;;;0.60;59.00;;;;;;6119772;23;20405;-79
2023/02/09 18:48:53;;;;;;;3.50;3.30;;;0.50;59.20;;;;;;6094648;23;20383;-79
2023/02/09 18:51:21;;;;;;;3.65;3.40;;;0.50;59.70;;;;;;6096074;23;20376;-79
2023/02/09 18:53:50;;;;;;;3.92;3.72;;;0.20;60.70;;;;;;6095581;23;20384;-79
2023/02/09 18:56:21;;;;;;;3.70;3.50;;;0.10;60.20;;;;;;6121497;23;20756;-79
2023/02/09 18:58:49;;;;;;;3.42;3.22;;;0.00;60.20;;;;;;6119985;23;20408;-79
2023/02/09 19:01:19;;;;;;;3.45;3.28;;;0.00;60.60;;;;;;6096136;23;20854;-81
2023/02/09 19:03:50;;;;;;;3.05;2.95;;;0.00;61.20;;;;;;6094736;23;20392;-80
2023/02/09 19:06:19;;;;;;;3.45;3.25;;;-0.10;61.20;;;;;;6095735;23;20379;-79
2023/02/09 19:08:47;;;;;;;3.40;3.20;;;-0.10;60.70;;;;;;6094627;23;20402;-80
2023/02/09 19:11:20;;;;;;;3.25;3.05;;;-0.10;60.40;;;;;;6094413;23;20455;-79
2023/02/09 19:16:36;;;;;;;2.83;2.72;;;-0.10;60.90;;;;;;6106629;23;20859;-79
2023/02/09 19:19:03;;;;;;;2.65;2.55;;;-0.20;60.80;;;;;;6094770;23;20384;-79
2023/02/09 19:21:31;;;;;;;2.85;2.75;;;-0.20;60.80;;;;;;6096013;23;20379;-79
2023/02/09 19:23:58;;;;;;;3.22;3.10;;;-0.20;61.60;;;;;;6094847;23;20382;-78
2023/02/09 19:26:25;;;;;;;3.22;3.03;;;-0.20;61.80;;;;;;6094778;23;20752;-80
2023/02/09 19:28:54;;;;;;;2.30;2.20;;;-0.20;62.20;;;;;;6095303;23;20451;-79
2023/02/09 19:31:21;;;;;;;2.50;2.40;;;-0.30;62.70;;;;;;6096386;23;20379;-79
2023/02/09 19:33:48;;;;;;;2.67;2.58;;;-0.50;64.50;;;;;;6095228;23;20383;-79
2023/02/09 19:36:15;;;;;;;2.35;2.25;;;-0.60;66.10;;;;;;6097011;23;20411;-79
2023/02/09 19:38:42;;;;;;;2.42;2.30;;;-0.80;69.90;;;;;;6095578;23;20383;-79
2023/02/09 19:41:11;;;;;;;2.05;1.95;;;-0.90;71.20;;;;;;6094167;23;20372;-80
2023/02/09 19:43:41;;;;;;;2.28;2.17;;;-0.90;72.70;;;;;;6094920;23;20372;-78
2023/02/09 19:46:09;;;;;;;2.28;2.17;;;-1.00;72.80;;;;;;6091914;23;20367;-79
2023/02/09 19:48:39;;;;;;;2.40;2.30;;;-1.10;74.50;;;;;;6093706;23;20388;-79
2023/02/09 19:51:07;;;;;;;2.63;2.50;;;-1.20;77.40;;;;;;6094475;23;20867;-79
2023/02/09 19:53:34;;;;;;;3.40;3.20;;;-1.20;76.60;;;;;;6096039;23;20380;-79
2023/02/09 19:56:01;;;;;;;3.85;3.65;;;-1.20;75.00;;;;;;6094402;23;20384;-80
2023/02/09 19:58:29;;;;;;;3.75;3.55;;;-1.10;73.80;;;;;;6095692;23;20442;-79
2023/02/09 20:00:56;;;;;;;3.15;2.95;;;-1.00;72.80;;;;;;6094695;23;20886;-78
2023/02/09 20:03:23;;;;;;;2.63;2.53;;;-1.10;74.00;;;;;;6071768;23;20379;-79
2023/02/09 20:05:50;;;;;;;2.97;2.88;;;-1.00;72.80;;;;;;6094722;23;20492;-79
2023/02/09 20:08:19;;;;;;;3.08;2.97;;;-1.10;71.80;;;;;;6096179;23;20399;-79
2023/02/09 20:10:46;;;;;;;2.75;2.65;;;-1.10;71.30;;;;;;6071858;23;20391;-79
2023/02/09 20:13:14;;;;;;;2.70;2.60;;;-1.00;70.80;;;;;;6119720;23;20700;-78
2023/02/09 20:15:42;;;;;;;2.60;2.50;;;-1.00;70.50;;;;;;6120688;23;20380;-78
2023/02/09 20:18:10;;;;;;;2.80;2.60;;;-1.00;70.40;;;;;;6094680;23;20388;-78
2023/02/09 20:20:42;;;;;;;3.03;2.92;;;-1.00;72.40;;;;;;6121014;23;20407;-78
2023/02/09 20:23:09;;;;;;;2.80;2.70;;;-1.10;72.80;;;;;;6095319;23;20447;-79
2023/02/09 20:25:39;;;;;;;2.60;2.50;;;-1.20;73.30;;;;;;6095476;23;20382;-79
2023/02/09 20:28:12;;;;;;;2.92;2.75;;;-1.30;74.00;;;;;;6095557;23;20399;-78
2023/02/09 20:30:41;;;;;;;2.63;2.53;;;-1.50;76.10;;;;;;6095880;23;20411;-78
2023/02/09 20:33:09;;;;;;;4.40;4.10;;;-1.60;79.20;;;;;;6095079;23;20367;-79
2023/02/09 20:35:40;;;;;;;3.80;3.60;;;-1.80;83.00;;;;;;6095203;23;20388;-79
2023/02/09 20:38:07;;;;;;;3.70;3.50;;;-1.70;86.40;;;;;;6095060;23;20372;-78
2023/02/09 20:40:39;;;;;;;4.13;3.90;;;-1.70;84.30;;;;;;6097241;23;20478;-78
2023/02/09 20:48:37;;;;;;;3.50;3.30;;;-1.60;81.00;;;;;;6121645;23;20399;-78
2023/02/09 20:51:04;;;;;;;3.30;3.20;;;-1.70;83.00;;;;;;6097150;23;20379;-78
2023/02/09 20:53:32;;;;;;;3.25;3.15;;;-1.70;83.40;;;;;;6095769;23;20446;-79
2023/02/09 20:55:58;;;;;;;3.03;2.93;;;-1.80;85.90;;;;;;6096663;23;20748;-78
2023/02/09 20:58:25;;;;;;;3.00;2.90;;;-1.90;84.50;;;;;;6121237;23;20391;-80
2023/02/09 21:00:52;;;;;;;2.90;2.80;;;-1.80;83.90;;;;;;6096870;23;20380;-78
2023/02/09 21:03:19;;;;;;;2.78;2.67;;;-1.80;83.10;;;;;;6096560;23;20451;-79
2023/02/09 21:05:46;;;;;;;2.60;2.50;;;-1.80;82.50;;;;;;6096545;23;20386;-79
2023/02/09 21:08:13;;;;;;;2.70;2.60;;;-1.80;81.70;;;;;;6096826;23;20764;-79
2023/02/09 21:10:40;;;;;;;3.00;2.90;;;-1.80;81.10;;;;;;6095870;23;20380;-78
2023/02/09 21:13:08;;;;;;;3.17;3.08;;;-1.80;81.90;;;;;;6091993;23;20374;-79
2023/02/09 21:15:40;;;;;;;3.28;3.10;;;-1.90;81.40;;;;;;6091192;23;20864;-78
2023/02/09 21:18:07;;;;;;;3.33;3.22;;;-2.10;84.20;;;;;;6092206;23;20385;-79
2023/02/09 21:20:34;;;;;;;3.20;3.05;;;-2.10;83.80;;;;;;6090186;23;20476;-78
2023/02/09 21:23:02;;;;;;;3.25;3.15;;;-2.10;82.30;;;;;;6092268;23;20404;-79
2023/02/09 21:25:29;;;;;;;3.25;3.15;;;-2.10;81.30;;;;;;6090616;23;20842;-79
2023/02/09 21:28:00;;;;;;;3.13;3.03;;;-2.10;80.60;;;;;;6091953;23;20384;-78
2023/02/09 21:30:28;;;;;;;3.33;3.22;;;-2.10;81.70;;;;;;6090531;23;20469;-78
2023/02/09 21:32:55;;;;;;;2.97;2.88;;;-2.10;81.80;;;;;;6093328;23;20417;-78
2023/02/09 21:35:22;;;;;;;3.25;3.13;;;-2.10;83.30;;;;;;6092358;23;20487;-79
2023/02/09 21:37:49;;;;;;;3.20;3.10;;;-2.20;83.70;;;;;;6092021;23;20394;-79
2023/02/09 21:40:19;;;;;;;2.60;2.50;;;-2.20;83.40;;;;;;6068620;23;20758;-78
2023/02/09 21:42:48;;;;;;;2.83;2.72;;;-2.20;83.00;;;;;;6090983;23;20385;-79
2023/02/09 21:45:14;;;;;;;2.90;2.80;;;-2.30;83.10;;;;;;6092764;23;20381;-78
2023/02/09 21:47:42;;;;;;;2.60;2.50;;;-2.60;86.10;;;;;;6090567;23;20381;-78
2023/02/09 21:50:11;;;;;;;2.72;2.63;;;-2.50;85.60;;;;;;6091443;23;20420;-80
2023/02/09 21:52:38;;;;;;;2.80;2.70;;;-2.70;86.30;;;;;;6091131;23;20377;-78
2023/02/09 21:55:07;;;;;;;2.95;2.85;;;-2.90;88.20;;;;;;6091718;23;20385;-79
2023/02/09 21:57:35;;;;;;;2.95;2.85;;;-2.80;87.30;;;;;;6091596;23;20843;-80
2023/02/09 22:00:04;;;;;;;3.10;3.00;;;-2.80;86.80;;;;;;6092249;23;20436;-80
2023/02/09 22:02:31;;;;;;;2.90;2.80;;;-2.80;85.40;;;;;;6087585;23;20382;-78
2023/02/09 22:04:58;;;;;;;2.80;2.70;;;-2.80;86.20;;;;;;6091229;23;20429;-79
2023/02/09 22:07:25;;;;;;;2.95;2.75;;;-3.00;88.20;;;;;;6090977;23;20445;-79
2023/02/09 22:09:52;;;;;;;3.00;2.90;;;-3.00;89.10;;;;;;6093688;23;20374;-79
2023/02/09 22:12:19;;;;;;;2.87;2.77;;;-3.10;88.50;;;;;;6091004;23;20474;-79
2023/02/09 22:14:46;;;;;;;2.90;2.80;;;-3.00;88.20;;;;;;6090206;23;20382;-78
2023/02/09 22:17:13;;;;;;;3.10;3.00;;;-3.00;87.20;;;;;;6092584;23;20410;-79
2023/02/09 22:19:40;;;;;;;3.10;3.00;;;-2.90;86.90;;;;;;6090673;23;20388;-78
2023/02/09 22:22:09;;;;;;;2.90;2.80;;;-2.90;86.10;;;;;;6091134;23;20381;-79
2023/02/09 22:24:36;;;;;;;3.20;2.90;;;-2.90;86.30;;;;;;6090409;23;20389;-78
2023/02/09 22:27:03;;;;;;;3.13;3.03;;;-2.90;86.00;;;;;;6115425;23;20448;-79
2023/02/09 22:29:32;;;;;;;3.45;3.25;;;-2.90;85.50;;;;;;6090140;23;20377;-79
2023/02/09 22:31:59;;;;;;;3.65;3.45;;;-2.80;84.40;;;;;;6091538;23;20377;-79
2023/02/09 22:34:26;;;;;;;3.78;3.58;;;-2.80;85.00;;;;;;6093043;23;20381;-79
2023/02/09 22:36:53;;;;;;;3.47;3.28;;;-2.90;84.80;;;;;;6096876;23;20374;-80
2023/02/09 22:39:20;;;;;;;3.77;3.57;;;-2.80;85.10;;;;;;6123583;23;20708;-78
2023/02/09 22:41:47;;;;;;;3.10;3.00;;;-2.80;85.50;;;;;;6096321;23;20486;-78
2023/02/09 22:44:15;;;;;;;3.30;3.10;;;-3.00;89.10;;;;;;6097723;23;20709;-79
2023/02/09 22:46:44;;;;;;;3.00;2.90;;;-3.10;89.30;;;;;;6096900;23;21163;-78
2023/02/09 22:49:18;;;;;;;3.45;3.30;;;-3.10;89.00;;;;;;6098578;23;20380;-78
2023/02/09 22:51:46;;;;;;;3.13;3.03;;;-3.10;89.70;;;;;;6097501;23;20396;-78
2023/02/09 22:54:15;;;;;;;3.25;3.10;;;-3.20;90.20;;;;;;6098458;23;20903;-79
2023/02/09 22:56:43;;;;;;;4.20;4.00;;;-3.30;91.10;;;;;;6097382;23;20843;-79
2023/02/09 22:59:11;;;;;;;8.57;7.97;;;-3.50;94.20;;;;;;6098058;23;20399;-78
2023/02/09 23:01:38;;;;;;;5.60;5.30;;;-3.40;94.70;;;;;;6096534;23;20375;-78
2023/02/09 23:04:05;;;;;;;5.00;4.70;;;-3.30;93.30;;;;;;6098563;23;20463;-79
2023/02/09 23:06:33;;;;;;;4.40;4.20;;;-3.30;92.40;;;;;;6097637;23;20382;-79
2023/02/09 23:09:03;;;;;;;4.97;4.68;;;-3.30;91.70;;;;;;6098072;23;20415;-78
2023/02/09 23:11:30;;;;;;;4.50;4.30;;;-3.30;91.20;;;;;;6098181;23;20387;-78
2023/02/09 23:13:58;;;;;;;4.30;4.10;;;-3.20;91.30;;;;;;6121239;23;20375;-78
2023/02/09 23:16:37;;;;;;;4.20;4.00;;;-3.30;91.70;;;;;;6122750;23;20380;-78
2023/02/09 23:19:07;;;;;;;4.07;3.88;;;-3.40;91.60;;;;;;6097112;23;20378;-78
2023/02/09 23:21:37;;;;;;;3.65;3.45;;;-3.50;91.90;;;;;;6097031;23;20376;-78
2023/02/09 23:24:04;;;;;;;3.67;3.47;;;-3.40;91.70;;;;;;6123006;23;20836;-79
2023/02/09 23:26:31;;;;;;;3.77;3.57;;;-3.50;92.40;;;;;;6097715;23;20388;-78
2023/02/09 23:29:00;;;;;;;3.45;3.35;;;-3.50;92.80;;;;;;6096533;23;20736;-78
2023/02/09 23:31:28;;;;;;;3.88;3.67;;;-3.40;92.60;;;;;;6097354;23;20462;-78
2023/02/09 23:33:55;;;;;;;3.50;3.40;;;-3.50;92.30;;;;;;6097294;23;20430;-78
2023/02/09 23:36:25;;;;;;;3.83;3.63;;;-3.50;92.00;;;;;;6097567;23;20380;-78
2023/02/09 23:38:57;;;;;;;3.63;3.50;;;-3.50;92.10;;;;;;6122496;23;20467;-78
2023/02/09 23:41:25;;;;;;;4.60;4.40;;;-3.50;92.00;;;;;;6121452;23;20399;-78
2023/02/09 23:43:52;;;;;;;4.30;4.10;;;-3.50;93.20;;;;;;6096741;23;20386;-78
2023/02/09 23:46:22;;;;;;;4.97;4.68;;;-3.50;93.90;;;;;;6096777;23;20380;-78
2023/02/09 23:48:52;;;;;;;4.95;4.65;;;-3.50;95.40;;;;;;6096762;23;20376;-78
2023/02/09 23:51:23;;;;;;;4.90;4.60;;;-3.50;96.70;;;;;;6097360;23;20382;-78
2023/02/09 23:53:49;;;;;;;4.90;4.60;;;-3.40;95.30;;;;;;6096299;23;20426;-79
2023/02/09 23:56:17;;;;;;;4.43;4.15;;;-3.40;94.70;;;;;;6122558;23;20709;-79
2023/02/09 23:58:46;;;;;;;4.10;3.90;;;-3.40;94.20;;;;;;6121623;23;20416;-79
